Startpagina
METAR-TAF:

METAR-TAF

Vliegvelden :

Productieplatform

K13-a, Nederland

breedte: 53-13-04N, lengte: 3-13-13E, hoogte: 31 m

Actueel weer

Dit bericht is 41 minuten geleden gemaakt, om 14:55 UTC
Wind 4 kt uit het zuidzuidoosten, variërend tussen het zuidoosten en het zuiden
Temperatuur 5°C
Vochtigheid 60%
Druk 1019 hPa

METAR: EHJR 201455Z AUTO 16004KT 130V190 //// // ///////// 05/M02 Q1019 RE// W///H6

Tijdstip: 16:36 (15:36 UTC)


TAF: ontbreekt

Waarnemingen en weersverwachtingen van meer dan 4000 vliegvelden (METAR en TAF).

De beschikbare stations zijn de gele en rode punten op de kaart.

Ga met uw muis naar het station om de naam te zien.

Klik dan om waarnemingen en weersverwachtingen te zien.

kaart wijzigen: klik op de groene knoppen met een zwart kruis om in te zoomen, op de groene knop met een streepje om uit te zoomen of op de groene pijlen voor aangrenzende kaarten.


METAR-TAF: